Time;durP1;ratioP1;P1;durP2;ratioP2;P2;SDS_P1;SDS_P2;PMS_P1;PMS_P2;Temp;Humidity;BMP_temperature;BMP_pressure;BME280_temperature;BME280_humidity;BME280_pressure;Samples;Min_cycle;Max_cycle;Signal;HPM_P1;HPM_P2
2022/07/03 00:01:30;;;;;;;6.67;4.23;;;19.20;29.90;;;;;;2615769;54;20123;-76
2022/07/03 00:07:18;;;;;;;3.80;3.30;;;19.00;32.00;;;;;;2615764;54;20159;-76
2022/07/03 00:09:45;;;;;;;3.50;3.20;;;19.00;37.20;;;;;;2615215;54;20426;-76
2022/07/03 00:12:11;;;;;;;10.03;3.90;;;18.80;39.90;;;;;;2614505;47;20439;-75
2022/07/03 00:17:59;;;;;;;5.53;4.20;;;18.70;40.40;;;;;;2615294;54;20174;-76
2022/07/03 00:30:17;;;;;;;4.13;3.73;;;18.20;62.80;;;;;;2614515;39;20968;-77
2022/07/03 00:39:29;;;;;;;4.60;4.20;;;18.10;65.50;;;;;;2613283;54;20490;-73
2022/07/03 00:45:18;;;;;;;4.17;3.87;;;17.90;81.80;;;;;;2613383;54;20358;-73
2022/07/03 00:51:06;;;;;;;3.97;3.67;;;18.00;83.50;;;;;;2612288;39;21122;-73
2022/07/03 00:56:56;;;;;;;5.43;3.70;;;18.10;79.90;;;;;;2613433;54;20498;-75
2022/07/03 01:02:44;;;;;;;5.40;3.80;;;17.80;91.40;;;;;;2614848;31;20781;-73
2022/07/03 01:25:14;;;;;;;6.20;4.37;;;17.60;97.10;;;;;;2611940;54;20413;-74
2022/07/03 01:31:02;;;;;;;5.30;4.10;;;17.50;98.70;;;;;;2612802;54;20390;-73
2022/07/03 01:36:53;;;;;;;4.83;4.40;;;17.20;99.90;;;;;;2611120;54;20393;-73
2022/07/03 01:42:42;;;;;;;7.33;5.23;;;17.30;99.90;;;;;;2612985;54;20396;-73
2022/07/03 01:58:41;;;;;;;6.03;5.20;;;16.90;99.90;;;;;;2613090;54;20419;-74
2022/07/03 02:01:44;;;;;;;5.20;4.70;;;16.90;99.90;;;;;;2612023;54;20417;-73
2022/07/03 02:14:28;;;;;;;4.40;4.00;;;17.00;99.90;;;;;;2612681;39;20795;-74
2022/07/03 02:20:16;;;;;;;5.13;4.73;;;17.30;99.90;;;;;;2612570;54;20390;-74
2022/07/03 02:26:08;;;;;;;4.80;4.40;;;17.40;99.90;;;;;;2612253;54;20382;-73
2022/07/03 02:31:59;;;;;;;5.97;3.97;;;17.60;99.90;;;;;;2613230;54;20411;-74
2022/07/03 02:48:07;;;;;;;9.47;5.57;;;17.50;99.90;;;;;;2612921;39;20872;-73
2022/07/03 03:00:24;;;;;;;5.23;4.63;;;17.20;99.90;;;;;;2613537;54;20398;-73
2022/07/03 03:16:15;;;;;;;8.00;4.67;;;17.10;99.90;;;;;;2612907;54;21030;-74
2022/07/03 03:22:24;;;;;;;5.73;5.13;;;16.90;99.90;;;;;;2612832;39;21203;-74
2022/07/03 03:31:32;;;;;;;5.53;5.03;;;16.70;99.90;;;;;;2614019;39;20821;-74
2022/07/03 03:37:19;;;;;;;5.93;5.17;;;16.80;99.90;;;;;;2613847;39;20239;-74
2022/07/03 03:43:06;;;;;;;7.67;4.60;;;16.90;99.90;;;;;;2613395;54;20148;-75
2022/07/03 03:48:53;;;;;;;5.47;4.50;;;16.80;99.90;;;;;;2613693;54;20400;-73
2022/07/03 03:54:41;;;;;;;10.30;4.83;;;17.00;99.90;;;;;;2615267;46;20157;-73
2022/07/03 04:00:29;;;;;;;7.13;4.63;;;17.20;99.90;;;;;;2614239;39;20723;-73
2022/07/03 04:06:19;;;;;;;6.17;4.60;;;17.30;99.90;;;;;;2614392;54;20137;-74
2022/07/03 04:12:07;;;;;;;5.30;4.70;;;17.50;99.90;;;;;;2613769;54;20447;-73
2022/07/03 04:17:54;;;;;;;5.13;4.53;;;17.50;99.90;;;;;;2613674;54;20405;-74
2022/07/03 04:23:43;;;;;;;5.03;4.53;;;17.60;99.90;;;;;;2613573;54;20136;-73
2022/07/03 04:29:31;;;;;;;6.57;4.47;;;17.70;99.90;;;;;;2614585;54;20509;-73
2022/07/03 04:35:19;;;;;;;4.70;4.07;;;17.90;99.90;;;;;;2613222;54;20156;-73
2022/07/03 04:41:06;;;;;;;4.30;3.60;;;17.90;99.70;;;;;;2614726;54;20650;-74
2022/07/03 04:46:54;;;;;;;5.93;4.57;;;18.20;95.20;;;;;;2614150;54;20300;-74
2022/07/03 04:52:41;;;;;;;4.77;4.33;;;18.30;96.10;;;;;;2613820;54;20137;-74
2022/07/03 04:58:29;;;;;;;4.63;4.23;;;18.40;94.80;;;;;;2614567;54;20137;-73
2022/07/03 05:04:17;;;;;;;5.90;4.03;;;19.00;86.90;;;;;;2614865;54;20133;-73
2022/07/03 05:20:28;;;;;;;4.43;4.13;;;19.20;83.70;;;;;;2612098;54;20378;-72
2022/07/03 05:26:15;;;;;;;4.40;4.00;;;19.00;90.60;;;;;;2611927;54;20441;-74
2022/07/03 05:32:03;;;;;;;4.10;3.70;;;19.80;80.90;;;;;;2612639;54;20122;-75
2022/07/03 05:37:51;;;;;;;4.90;4.50;;;20.90;54.30;;;;;;2612047;54;20388;-75
2022/07/03 05:43:38;;;;;;;4.17;3.80;;;21.80;29.40;;;;;;2610528;54;20135;-74
2022/07/03 05:49:25;;;;;;;4.63;4.17;;;22.20;20.80;;;;;;2609560;54;20788;-73
2022/07/03 05:55:13;;;;;;;9.33;4.60;;;22.70;16.40;;;;;;2613581;39;20504;-74
2022/07/03 06:01:01;;;;;;;5.77;5.27;;;22.90;12.20;;;;;;2614422;54;20651;-73
2022/07/03 06:06:48;;;;;;;6.07;5.40;;;22.90;11.20;;;;;;2614812;54;20196;-75
2022/07/03 06:12:53;;;;;;;7.03;6.33;;;23.00;12.30;;;;;;2612883;54;20168;-74
2022/07/03 06:18:40;;;;;;;6.43;5.00;;;23.30;9.80;;;;;;2612814;54;20421;-74
2022/07/03 06:24:27;;;;;;;10.80;6.00;;;23.70;7.90;;;;;;2613806;54;20150;-74
2022/07/03 06:30:14;;;;;;;13.73;7.30;;;23.80;5.40;;;;;;2612841;54;20911;-74
2022/07/03 06:36:02;;;;;;;8.63;6.90;;;23.90;4.10;;;;;;2614361;54;20150;-74
2022/07/03 06:41:49;;;;;;;10.30;6.70;;;24.10;2.30;;;;;;2613728;39;20806;-73
2022/07/03 06:47:40;;;;;;;7.87;5.90;;;24.30;2.10;;;;;;2614131;54;20142;-75
2022/07/03 06:53:27;;;;;;;8.07;6.70;;;24.90;1.00;;;;;;2614496;54;20973;-75
2022/07/03 06:59:15;;;;;;;8.10;6.27;;;24.90;1.00;;;;;;2613590;46;20148;-74
2022/07/03 07:05:04;;;;;;;6.77;6.10;;;25.40;1.00;;;;;;2613701;54;20154;-74
2022/07/03 07:21:04;;;;;;;10.40;6.30;;;26.20;1.00;;;;;;2613980;54;20415;-76
2022/07/03 07:26:51;;;;;;;8.93;6.47;;;26.50;1.00;;;;;;2614030;54;20144;-74
2022/07/03 07:32:39;;;;;;;5.87;5.47;;;26.80;1.00;;;;;;2614352;54;20126;-75
2022/07/03 07:38:26;;;;;;;6.43;5.60;;;26.90;1.00;;;;;;2613899;54;20130;-75
2022/07/03 07:44:13;;;;;;;6.80;6.10;;;27.20;1.00;;;;;;2615112;39;20641;-74
2022/07/03 07:50:00;;;;;;;5.27;4.73;;;27.90;1.00;;;;;;2612571;54;20367;-75
2022/07/03 07:55:47;;;;;;;5.40;4.70;;;28.50;1.00;;;;;;2613882;54;20123;-76
2022/07/03 08:07:41;;;;;;;4.80;4.40;;;27.30;1.00;;;;;;2615452;39;20752;-74
2022/07/03 08:23:39;;;;;;;5.57;5.07;;;27.80;1.00;;;;;;2613035;54;20445;-75
2022/07/03 08:29:27;;;;;;;6.20;5.37;;;27.70;1.00;;;;;;2612900;54;20275;-74
2022/07/03 08:35:15;;;;;;;6.50;5.23;;;27.30;1.00;;;;;;2613838;54;20392;-74
2022/07/03 08:41:03;;;;;;;7.93;5.50;;;27.60;1.00;;;;;;2613754;54;20510;-75
2022/07/03 08:46:51;;;;;;;6.77;5.60;;;27.70;1.00;;;;;;2613084;54;20547;-73
2022/07/03 08:52:39;;;;;;;5.67;5.20;;;28.00;1.00;;;;;;2612813;54;20401;-73
2022/07/03 08:58:29;;;;;;;6.50;5.07;;;28.20;1.00;;;;;;2615238;39;20799;-75
2022/07/03 09:04:17;;;;;;;6.93;5.40;;;28.10;1.00;;;;;;2615019;54;20421;-75
2022/07/03 09:10:08;;;;;;;5.70;5.23;;;27.60;1.00;;;;;;2613763;54;20651;-76
2022/07/03 09:19:44;;;;;;;6.40;5.80;;;29.10;1.00;;;;;;2613714;54;20430;-75
2022/07/03 09:25:33;;;;;;;5.80;5.20;;;28.70;1.00;;;;;;2613133;54;20424;-75
2022/07/03 09:31:24;;;;;;;9.60;6.20;;;28.40;1.00;;;;;;2615469;54;20396;-75
2022/07/03 09:37:14;;;;;;;5.90;5.40;;;28.10;1.00;;;;;;2614377;54;20512;-75
2022/07/03 09:43:06;;;;;;;6.80;5.30;;;29.10;1.00;;;;;;2614508;54;20418;-74
2022/07/03 09:48:54;;;;;;;7.03;5.30;;;28.10;1.00;;;;;;2610640;54;20541;-76
2022/07/03 09:54:42;;;;;;;5.10;4.63;;;29.00;1.00;;;;;;2614127;54;20149;-75
2022/07/03 10:00:36;;;;;;;4.80;4.40;;;29.40;1.00;;;;;;2612712;54;20187;-75
2022/07/03 10:06:23;;;;;;;8.27;5.07;;;29.90;1.00;;;;;;2612841;54;20397;-74
2022/07/03 10:12:11;;;;;;;5.60;5.10;;;28.90;1.00;;;;;;2612612;54;20133;-75
2022/07/03 10:21:27;;;;;;;5.20;4.70;;;29.90;1.00;;;;;;2612156;54;20389;-75
2022/07/03 10:27:14;;;;;;;8.60;4.67;;;29.50;1.00;;;;;;2610473;54;20396;-77
2022/07/03 10:33:02;;;;;;;5.07;4.67;;;29.10;1.00;;;;;;2610101;54;20382;-74
2022/07/03 10:38:51;;;;;;;5.47;5.00;;;29.50;1.00;;;;;;2607192;54;20392;-74
2022/07/03 10:51:23;;;;;;;5.10;4.70;;;29.70;1.00;;;;;;2612091;39;20816;-75
2022/07/03 11:07:16;;;;;;;3.77;3.30;;;28.70;1.00;;;;;;2612074;39;20749;-74
2022/07/03 11:23:09;;;;;;;5.73;3.70;;;29.50;1.00;;;;;;2614035;54;20414;-75
2022/07/03 11:28:56;;;;;;;4.30;4.00;;;30.20;1.00;;;;;;2612544;54;20435;-77
2022/07/03 11:38:05;;;;;;;4.10;3.70;;;29.60;1.00;;;;;;2613421;54;20398;-74
2022/07/03 11:50:40;;;;;;;7.90;4.87;;;29.70;1.00;;;;;;2612750;54;20404;-75
2022/07/03 11:56:28;;;;;;;5.67;5.27;;;30.50;1.00;;;;;;2611366;54;20401;-75
2022/07/03 12:02:15;;;;;;;5.00;4.50;;;30.40;1.00;;;;;;2612772;54;20411;-75
2022/07/03 12:08:05;;;;;;;4.60;3.90;;;29.20;1.00;;;;;;2612712;54;20164;-75
2022/07/03 12:13:54;;;;;;;5.10;4.60;;;30.10;1.00;;;;;;2612874;54;20395;-74
2022/07/03 12:23:02;;;;;;;4.83;4.47;;;29.90;1.00;;;;;;2612510;54;20398;-75
2022/07/03 12:28:50;;;;;;;4.30;4.00;;;28.70;1.00;;;;;;2613950;54;20151;-77
2022/07/03 12:34:38;;;;;;;4.50;3.80;;;30.00;1.00;;;;;;2612883;54;20131;-75
2022/07/03 12:40:26;;;;;;;5.30;4.97;;;29.40;1.00;;;;;;2613309;39;21107;-74
2022/07/03 12:52:57;;;;;;;6.27;3.97;;;28.40;1.00;;;;;;2613082;54;20384;-75
2022/07/03 13:02:05;;;;;;;4.20;3.87;;;28.90;1.00;;;;;;2610831;54;21243;-75
2022/07/03 13:07:55;;;;;;;6.43;4.17;;;28.10;1.00;;;;;;2612247;39;20882;-76
2022/07/03 13:13:47;;;;;;;4.17;3.77;;;27.90;1.00;;;;;;2610428;54;20479;-75
2022/07/03 13:34:13;;;;;;;4.03;3.73;;;27.10;1.00;;;;;;2612746;39;20935;-75
2022/07/03 13:47:00;;;;;;;4.63;4.20;;;27.30;1.00;;;;;;2610771;54;21694;-76
2022/07/03 13:52:47;;;;;;;4.43;4.13;;;28.20;1.00;;;;;;2610048;54;20231;-75
2022/07/03 13:58:35;;;;;;;4.07;3.77;;;27.80;1.00;;;;;;2608318;54;20151;-75
2022/07/03 14:04:22;;;;;;;5.07;3.83;;;26.80;1.00;;;;;;2609305;54;20166;-74
2022/07/03 14:10:09;;;;;;;5.33;4.83;;;28.70;1.00;;;;;;2611480;54;20190;-79
2022/07/03 14:15:59;;;;;;;4.60;4.20;;;27.20;1.00;;;;;;2612969;54;20236;-79
2022/07/03 14:18:29;;;;;;;4.67;3.40;;;26.60;1.00;;;;;;2612808;47;20416;-76
2022/07/03 14:20:54;;;;;;;4.47;3.67;;;26.50;1.00;;;;;;2611156;54;20414;-75
2022/07/03 14:32:48;;;;;;;8.30;3.50;;;26.90;1.00;;;;;;2614225;54;20505;-75
2022/07/03 14:38:36;;;;;;;3.67;3.47;;;27.20;1.00;;;;;;2613336;54;20122;-77
2022/07/03 14:44:25;;;;;;;3.23;3.03;;;27.40;1.00;;;;;;2614040;54;20152;-76
2022/07/03 14:50:13;;;;;;;3.40;3.20;;;27.10;1.00;;;;;;2614514;54;20395;-75
2022/07/03 14:56:01;;;;;;;3.27;3.07;;;26.10;1.00;;;;;;2611722;54;20134;-75
2022/07/03 15:01:55;;;;;;;5.50;3.87;;;25.50;1.00;;;;;;2611612;54;20131;-76
2022/07/03 15:14:14;;;;;;;3.90;3.60;;;25.10;1.00;;;;;;2612519;39;20841;-76
2022/07/03 15:20:04;;;;;;;3.67;3.33;;;25.20;1.00;;;;;;2610729;39;20812;-76
2022/07/03 15:25:51;;;;;;;4.30;4.00;;;25.10;1.00;;;;;;2614639;54;21058;-75
2022/07/03 15:31:39;;;;;;;3.00;2.80;;;25.00;1.00;;;;;;2613661;54;20138;-75
2022/07/03 15:50:38;;;;;;;5.43;3.37;;;27.00;1.00;;;;;;2614292;54;20405;-75
2022/07/03 16:12:53;;;;;;;3.60;3.30;;;26.40;1.00;;;;;;2613228;54;20986;-76
2022/07/03 16:18:43;;;;;;;4.07;3.67;;;26.70;1.00;;;;;;2613192;54;20439;-77
2022/07/03 16:24:31;;;;;;;5.03;4.10;;;26.50;1.00;;;;;;2612481;54;21052;-76
2022/07/03 16:30:19;;;;;;;3.23;3.00;;;26.50;1.00;;;;;;2613685;39;20805;-76
2022/07/03 16:39:50;;;;;;;4.20;3.87;;;25.80;1.00;;;;;;2614024;54;20485;-75
2022/07/03 16:45:38;;;;;;;5.13;3.37;;;25.50;1.00;;;;;;2612726;54;20392;-76
2022/07/03 16:51:32;;;;;;;3.50;3.30;;;25.20;1.00;;;;;;2613357;54;20403;-75
2022/07/03 16:57:21;;;;;;;3.80;3.50;;;25.40;1.00;;;;;;2613391;54;20398;-76
2022/07/03 17:03:09;;;;;;;4.47;3.80;;;25.00;1.00;;;;;;2613247;54;20391;-75
2022/07/03 17:08:58;;;;;;;4.37;3.80;;;24.80;1.00;;;;;;2614907;54;20451;-76
2022/07/03 17:14:46;;;;;;;3.57;3.27;;;24.40;1.00;;;;;;2615335;31;20860;-76
2022/07/03 17:23:57;;;;;;;5.40;3.30;;;24.20;1.00;;;;;;2615204;46;20943;-76
2022/07/03 17:29:52;;;;;;;4.17;3.17;;;24.00;1.00;;;;;;2615068;54;20490;-76
2022/07/03 17:35:45;;;;;;;3.37;3.07;;;24.30;1.00;;;;;;2613599;54;20425;-75
2022/07/03 17:41:34;;;;;;;3.70;3.40;;;24.00;1.00;;;;;;2613020;54;20419;-76
2022/07/03 17:50:46;;;;;;;3.20;3.00;;;23.30;1.00;;;;;;2613346;54;20423;-75
2022/07/03 17:56:34;;;;;;;3.63;3.33;;;23.10;1.00;;;;;;2613078;54;20435;-75
2022/07/03 18:02:21;;;;;;;3.50;3.30;;;22.80;1.00;;;;;;2613346;54;20391;-76
2022/07/03 18:08:15;;;;;;;3.93;3.63;;;22.60;1.00;;;;;;2615180;54;20130;-75
2022/07/03 18:24:01;;;;;;;5.57;3.90;;;22.20;1.50;;;;;;2613962;39;20893;-75
2022/07/03 18:29:48;;;;;;;6.97;3.90;;;22.10;2.80;;;;;;2613348;54;20411;-76
2022/07/03 18:35:38;;;;;;;3.30;3.10;;;22.00;3.20;;;;;;2614036;54;20170;-75
2022/07/03 18:41:27;;;;;;;3.90;3.27;;;21.90;1.80;;;;;;2614017;54;20388;-77
2022/07/03 18:47:14;;;;;;;4.77;3.30;;;22.00;1.30;;;;;;2613638;54;20409;-77
2022/07/03 19:06:20;;;;;;;3.30;3.00;;;21.60;2.10;;;;;;2615711;46;20514;-76
2022/07/03 19:12:12;;;;;;;6.03;3.40;;;21.50;1.80;;;;;;2613308;54;20547;-76
2022/07/03 19:17:59;;;;;;;3.90;3.23;;;21.30;2.10;;;;;;2613519;54;20391;-76
2022/07/03 19:23:46;;;;;;;2.83;2.63;;;21.00;3.20;;;;;;2613259;46;20382;-76
2022/07/03 19:29:34;;;;;;;3.53;3.00;;;20.80;4.50;;;;;;2614042;54;20664;-75
2022/07/03 19:35:21;;;;;;;9.43;3.80;;;20.50;5.00;;;;;;2614465;54;20165;-77
2022/07/03 19:41:09;;;;;;;4.83;4.13;;;20.30;7.10;;;;;;2613216;39;20536;-75
2022/07/03 19:46:56;;;;;;;3.33;3.03;;;20.20;8.60;;;;;;2614395;54;20393;-75
2022/07/03 19:52:44;;;;;;;4.10;3.40;;;19.90;10.60;;;;;;2614894;54;20155;-76
2022/07/03 19:58:31;;;;;;;3.93;3.10;;;20.00;11.00;;;;;;2614326;54;20122;-76
2022/07/03 20:04:20;;;;;;;6.73;4.30;;;19.70;12.30;;;;;;2615656;54;20649;-75
2022/07/03 20:10:08;;;;;;;3.40;3.10;;;19.70;13.30;;;;;;2614997;54;20358;-77
2022/07/03 20:15:56;;;;;;;2.87;2.53;;;19.60;14.40;;;;;;2614602;54;20393;-77
2022/07/03 20:21:44;;;;;;;7.43;2.50;;;19.30;14.80;;;;;;2614627;54;20468;-76
2022/07/03 20:27:32;;;;;;;2.90;2.60;;;19.30;15.60;;;;;;2615290;54;20693;-76
2022/07/03 20:33:20;;;;;;;2.97;2.50;;;19.10;17.10;;;;;;2615224;54;20129;-75
2022/07/03 20:39:08;;;;;;;3.10;2.80;;;19.10;16.70;;;;;;2614798;54;20134;-76
2022/07/03 20:44:56;;;;;;;8.80;2.87;;;19.10;17.00;;;;;;2615008;54;20419;-76
2022/07/03 20:50:43;;;;;;;2.60;2.40;;;18.80;20.10;;;;;;2614682;46;20169;-76
2022/07/03 20:56:31;;;;;;;3.40;3.10;;;18.70;21.30;;;;;;2615149;54;20144;-74
2022/07/03 21:02:19;;;;;;;3.07;2.83;;;18.50;23.70;;;;;;2614384;54;20133;-74
2022/07/03 21:08:07;;;;;;;2.83;2.63;;;18.40;24.20;;;;;;2614716;54;20421;-75
2022/07/03 21:13:55;;;;;;;3.97;2.50;;;18.20;25.10;;;;;;2615357;54;20202;-75
2022/07/03 21:30:02;;;;;;;2.70;2.50;;;17.70;29.20;;;;;;2613242;54;20394;-75
2022/07/03 21:35:49;;;;;;;3.10;2.80;;;17.90;23.90;;;;;;2613023;54;20132;-75
2022/07/03 21:41:37;;;;;;;5.93;3.07;;;17.80;23.10;;;;;;2613182;54;20185;-74
2022/07/03 21:47:24;;;;;;;3.17;2.90;;;17.60;24.80;;;;;;2613502;54;20398;-74
2022/07/03 21:53:11;;;;;;;5.83;2.57;;;17.30;29.20;;;;;;2612663;54;20161;-74
2022/07/03 21:58:58;;;;;;;6.67;2.90;;;17.20;32.00;;;;;;2613802;54;20150;-74
2022/07/03 22:04:46;;;;;;;7.43;3.00;;;17.30;34.90;;;;;;2615363;39;20554;-73
2022/07/03 22:10:35;;;;;;;5.07;3.23;;;17.00;40.10;;;;;;2614375;54;20156;-74
2022/07/03 22:16:23;;;;;;;3.60;3.00;;;16.80;40.40;;;;;;2614208;54;20358;-73
2022/07/03 22:22:27;;;;;;;4.60;2.93;;;16.70;34.70;;;;;;2612758;54;20752;-74
2022/07/03 22:28:14;;;;;;;5.37;2.40;;;16.60;29.30;;;;;;2613449;54;20512;-75
2022/07/03 22:34:02;;;;;;;2.40;2.20;;;16.60;26.30;;;;;;2613180;54;20333;-74
2022/07/03 22:39:49;;;;;;;6.10;2.50;;;16.50;25.00;;;;;;2613361;54;20211;-74
2022/07/03 22:45:37;;;;;;;5.50;2.20;;;16.30;24.80;;;;;;2612242;54;20131;-74
2022/07/03 22:51:24;;;;;;;2.70;2.17;;;16.20;25.90;;;;;;2613318;54;20158;-75
2022/07/03 22:57:11;;;;;;;2.43;2.23;;;16.40;24.30;;;;;;2612784;54;20153;-74
2022/07/03 23:02:59;;;;;;;5.83;2.27;;;16.30;25.70;;;;;;2614701;54;20135;-74
2022/07/03 23:08:47;;;;;;;3.37;2.47;;;16.20;25.70;;;;;;2614699;54;20152;-74
2022/07/03 23:14:34;;;;;;;3.17;2.00;;;16.00;26.90;;;;;;2615432;54;20404;-74
2022/07/03 23:20:22;;;;;;;5.43;2.20;;;16.00;26.80;;;;;;2615478;54;20194;-75
2022/07/03 23:26:10;;;;;;;2.80;1.97;;;16.10;24.90;;;;;;2614136;54;20195;-74
2022/07/03 23:31:58;;;;;;;2.20;2.10;;;16.10;26.20;;;;;;2614842;54;20391;-73
2022/07/03 23:37:46;;;;;;;2.50;2.10;;;16.10;26.60;;;;;;2615160;54;20158;-74
2022/07/03 23:43:34;;;;;;;3.27;2.20;;;15.90;27.90;;;;;;2615245;54;20135;-74
2022/07/03 23:55:28;;;;;;;2.97;2.67;;;15.50;35.00;;;;;;2614667;54;20447;-75
